createdAt,value
2019-05-05T00:00:35.203Z,5.09
2019-05-05T00:03:09.443Z,5.16
2019-05-05T00:05:40.712Z,5.21
2019-05-05T00:08:10.851Z,5.06
2019-05-05T00:10:58.332Z,4.91
2019-05-05T00:13:34.558Z,4.94
2019-05-05T00:16:21.457Z,4.89
2019-05-05T00:18:54.282Z,4.95
2019-05-05T00:21:24.453Z,4.95
2019-05-05T00:23:55.350Z,4.97
2019-05-05T00:26:25.095Z,4.95
2019-05-05T00:28:55.374Z,4.86
2019-05-05T00:31:25.130Z,4.82
2019-05-05T00:33:54.863Z,4.77
2019-05-05T00:36:24.739Z,4.72
2019-05-05T00:38:55.294Z,4.72
2019-05-05T00:41:25.469Z,4.69
2019-05-05T00:43:55.487Z,4.65
2019-05-05T00:46:32.456Z,4.58
2019-05-05T00:49:02.084Z,4.58
2019-05-05T00:51:31.744Z,4.68
2019-05-05T00:54:01.369Z,4.71
2019-05-05T00:56:31.021Z,4.77
2019-05-05T00:59:04.471Z,4.68
2019-05-05T01:01:44.874Z,4.60
2019-05-05T01:04:16.283Z,4.49
2019-05-05T01:06:45.921Z,4.40
2019-05-05T01:09:20.196Z,4.31
2019-05-05T01:11:49.857Z,4.24
2019-05-05T01:14:19.552Z,4.29
2019-05-05T01:16:49.305Z,4.40
2019-05-05T01:19:18.932Z,4.45
2019-05-05T01:21:50.022Z,4.53
2019-05-05T01:24:19.648Z,4.47
2019-05-05T01:26:49.294Z,4.53
2019-05-05T01:29:18.920Z,4.57
2019-05-05T01:31:48.581Z,4.60
2019-05-05T01:34:28.537Z,4.59
2019-05-05T01:36:59.826Z,4.63
2019-05-05T01:39:36.824Z,4.62
2019-05-05T01:42:14.391Z,4.62
2019-05-05T01:44:44.820Z,4.64
2019-05-05T01:47:14.866Z,4.68
2019-05-05T01:49:45.638Z,4.65
2019-05-05T01:52:15.262Z,4.65
2019-05-05T01:54:44.914Z,4.64
2019-05-05T01:57:15.054Z,4.64
2019-05-05T01:59:45.006Z,4.65
2019-05-05T02:02:14.834Z,4.64
2019-05-05T02:04:44.906Z,4.64
2019-05-05T02:07:14.780Z,4.61
2019-05-05T02:09:45.087Z,4.61
2019-05-05T02:12:15.896Z,4.57
2019-05-05T02:14:45.741Z,4.62
2019-05-05T02:17:15.429Z,4.50
2019-05-05T02:19:45.089Z,4.46
2019-05-05T02:22:14.882Z,4.39
2019-05-05T02:24:44.644Z,4.33
2019-05-05T02:27:14.814Z,4.24
2019-05-05T02:29:55.142Z,4.22
2019-05-05T02:32:29.371Z,4.16
2019-05-05T02:35:00.660Z,4.12
2019-05-05T02:37:30.276Z,4.08
2019-05-05T02:40:06.392Z,4.03
2019-05-05T02:42:31.718Z,3.95
2019-05-05T02:45:05.553Z,3.95
2019-05-05T02:47:56.048Z,3.91
2019-05-05T02:50:46.683Z,3.98
2019-05-05T02:53:04.038Z,3.94
2019-05-05T02:55:34.819Z,3.96
2019-05-05T02:58:04.635Z,3.90
2019-05-05T03:00:36.002Z,3.89
2019-05-05T03:03:07.429Z,3.88
2019-05-05T03:05:37.248Z,3.86
2019-05-05T03:08:07.823Z,3.89
2019-05-05T03:10:37.644Z,3.93
2019-05-05T03:13:07.440Z,3.92
2019-05-05T03:15:48.667Z,3.85
2019-05-05T03:18:18.635Z,3.80
2019-05-05T03:21:01.568Z,3.72
2019-05-05T03:23:20.817Z,3.70
2019-05-05T03:25:51.005Z,3.72
2019-05-05T03:28:20.710Z,3.69
2019-05-05T03:30:50.489Z,3.67
2019-05-05T03:33:20.194Z,3.72
2019-05-05T03:35:49.833Z,3.71
2019-05-05T03:38:19.628Z,3.73
2019-05-05T03:40:50.983Z,3.78
2019-05-05T03:43:23.674Z,3.73
2019-05-05T03:45:55.120Z,3.66
2019-05-05T03:48:24.827Z,3.71
2019-05-05T03:50:54.845Z,3.68
2019-05-05T03:53:25.562Z,3.69
2019-05-05T03:55:55.356Z,3.64
2019-05-05T03:58:25.560Z,3.69
2019-05-05T04:01:20.306Z,3.72
2019-05-05T04:03:49.956Z,3.80
2019-05-05T04:06:21.215Z,3.76
2019-05-05T04:08:51.046Z,3.76
2019-05-05T04:11:20.692Z,3.76
2019-05-05T04:13:50.411Z,3.73
2019-05-05T04:16:24.589Z,3.84
2019-05-05T04:19:03.552Z,3.84
2019-05-05T04:21:36.522Z,3.83
2019-05-05T04:24:04.595Z,3.90
2019-05-05T04:26:34.218Z,3.91
2019-05-05T04:29:05.344Z,3.90
2019-05-05T04:31:35.168Z,3.96
2019-05-05T04:34:04.815Z,3.96
2019-05-05T04:36:34.436Z,3.83
2019-05-05T04:39:06.500Z,3.79
2019-05-05T04:41:36.290Z,3.74
2019-05-05T04:44:05.939Z,3.64
2019-05-05T04:46:35.564Z,3.58
2019-05-05T04:49:06.916Z,3.61
2019-05-05T04:51:47.757Z,3.61
2019-05-05T04:54:19.092Z,3.62
2019-05-05T04:56:48.711Z,3.66
2019-05-05T04:59:18.361Z,3.55
2019-05-05T05:01:49.616Z,3.63
2019-05-05T05:04:20.896Z,3.60
2019-05-05T05:06:54.234Z,3.66
2019-05-05T05:09:23.916Z,3.67
2019-05-05T05:11:54.727Z,3.69
2019-05-05T05:14:24.773Z,3.73
2019-05-05T05:16:55.746Z,3.78
2019-05-05T05:19:25.565Z,3.84
2019-05-05T05:22:01.607Z,3.85
2019-05-05T05:24:26.527Z,3.93
2019-05-05T05:26:56.239Z,3.99
2019-05-05T05:29:25.855Z,4.12
2019-05-05T05:31:55.575Z,4.22
2019-05-05T05:34:25.189Z,4.26
2019-05-05T05:36:55.008Z,4.30
2019-05-05T05:39:26.261Z,4.31
2019-05-05T05:41:55.905Z,4.41
2019-05-05T05:44:44.428Z,4.55
2019-05-05T05:47:33.731Z,4.67
2019-05-05T05:50:16.921Z,4.76
2019-05-05T05:52:46.563Z,4.79
2019-05-05T05:55:16.182Z,4.83
2019-05-05T05:57:45.828Z,4.91
2019-05-05T06:00:15.586Z,4.99
2019-05-05T06:02:45.223Z,5.05
2019-05-05T06:05:15.220Z,5.12
2019-05-05T06:07:44.859Z,5.18
2019-05-05T06:10:23.697Z,5.23
2019-05-05T06:12:45.884Z,5.30
2019-05-05T06:15:15.746Z,5.41
2019-05-05T06:17:45.393Z,5.54
2019-05-05T06:20:15.080Z,5.66
2019-05-05T06:22:44.807Z,5.66
2019-05-05T06:25:15.951Z,5.76
2019-05-05T06:27:45.900Z,5.85
2019-05-05T06:30:15.855Z,5.95
2019-05-05T06:32:45.813Z,6.02
2019-05-05T06:35:15.560Z,6.16
2019-05-05T06:37:54.761Z,6.35
2019-05-05T06:40:29.171Z,6.50
2019-05-05T06:43:06.397Z,6.52
2019-05-05T06:45:44.341Z,6.72
2019-05-05T06:48:14.107Z,6.74
2019-05-05T06:50:43.882Z,6.76
2019-05-05T06:53:13.703Z,6.98
2019-05-05T06:55:44.470Z,7.15
2019-05-05T06:58:14.193Z,7.39
2019-05-05T07:00:44.209Z,7.41
2019-05-05T07:03:14.060Z,7.49
2019-05-05T07:05:43.976Z,7.66
2019-05-05T07:08:13.940Z,7.61
2019-05-05T07:10:44.490Z,7.66
2019-05-05T07:13:14.205Z,7.58
2019-05-05T07:15:43.978Z,7.66
2019-05-05T07:18:14.280Z,7.84
2019-05-05T07:20:44.230Z,7.96
2019-05-05T07:23:14.604Z,8.03
2019-05-05T07:25:46.064Z,8.28
2019-05-05T07:28:15.811Z,8.46
2019-05-05T07:30:45.446Z,8.50
2019-05-05T07:33:15.072Z,8.47
2019-05-05T07:35:56.074Z,8.27
2019-05-05T07:38:17.967Z,8.33
2019-05-05T07:40:47.609Z,8.35
2019-05-05T07:43:17.229Z,8.38
2019-05-05T07:45:46.869Z,8.38
2019-05-05T07:48:16.488Z,8.60
2019-05-05T07:50:58.674Z,8.86
2019-05-05T07:53:17.952Z,8.98
2019-05-05T07:55:47.686Z,8.93
2019-05-05T07:58:17.310Z,8.75
2019-05-05T08:00:46.953Z,8.91
2019-05-05T08:03:16.578Z,9.22
2019-05-05T08:05:46.221Z,9.20
2019-05-05T08:08:15.835Z,9.19
2019-05-05T08:10:45.480Z,9.20
2019-05-05T08:13:15.119Z,9.27
2019-05-05T08:15:56.829Z,9.53
2019-05-05T08:18:24.196Z,9.47
2019-05-05T08:21:00.707Z,9.53
2019-05-05T08:23:35.571Z,9.52
2019-05-05T08:26:06.947Z,9.72
2019-05-05T08:28:50.140Z,10.03
2019-05-05T08:31:21.429Z,10.18
2019-05-05T08:33:51.050Z,10.27
2019-05-05T08:36:20.698Z,10.45
2019-05-05T08:38:50.327Z,10.75
2019-05-05T08:41:19.986Z,10.94
2019-05-05T08:43:49.602Z,11.28
2019-05-05T08:46:19.253Z,11.47
2019-05-05T08:48:48.876Z,11.53
2019-05-05T08:51:18.524Z,11.60
2019-05-05T08:53:48.578Z,11.65
2019-05-05T08:56:18.183Z,11.79
2019-05-05T08:58:49.769Z,11.74
2019-05-05T09:01:19.177Z,11.58
2019-05-05T09:03:48.832Z,11.66
2019-05-05T09:06:18.448Z,11.85
2019-05-05T09:08:48.104Z,12.26
2019-05-05T09:11:17.725Z,12.61
2019-05-05T09:13:47.369Z,12.63
2019-05-05T09:16:17.088Z,12.95
2019-05-05T09:19:00.512Z,12.98
2019-05-05T09:21:30.132Z,13.02
2019-05-05T09:24:04.689Z,12.75
2019-05-05T09:26:37.327Z,12.71
2019-05-05T09:29:24.268Z,12.53
2019-05-05T09:31:54.132Z,12.19
2019-05-05T09:34:24.080Z,12.28
2019-05-05T09:36:54.481Z,12.33
2019-05-05T09:39:24.157Z,12.52
2019-05-05T09:41:53.997Z,12.45
2019-05-05T09:44:24.247Z,12.46
2019-05-05T09:46:54.046Z,12.50
2019-05-05T09:49:24.655Z,12.40
2019-05-05T09:51:54.621Z,12.64
2019-05-05T09:54:24.459Z,12.56
2019-05-05T09:56:54.419Z,12.75
2019-05-05T09:59:24.187Z,12.87
2019-05-05T10:01:54.012Z,13.00
2019-05-05T10:04:24.908Z,13.04
2019-05-05T10:06:54.543Z,12.96
2019-05-05T10:09:24.295Z,12.95
2019-05-05T10:11:54.162Z,12.98
2019-05-05T10:14:23.824Z,13.03
2019-05-05T10:16:54.083Z,13.01
2019-05-05T10:19:24.336Z,12.97
2019-05-05T10:21:54.086Z,13.23
2019-05-05T10:24:30.993Z,13.19
2019-05-05T10:27:00.439Z,13.18
2019-05-05T10:29:30.119Z,13.15
2019-05-05T10:31:59.719Z,13.12
2019-05-05T10:34:29.368Z,13.13
2019-05-05T10:36:59.000Z,13.25
2019-05-05T10:39:30.303Z,13.32
2019-05-05T10:41:59.931Z,13.55
2019-05-05T10:44:29.579Z,13.49
2019-05-05T10:46:59.208Z,13.58
2019-05-05T10:49:28.863Z,13.70
2019-05-05T10:51:58.484Z,13.71
2019-05-05T10:54:40.529Z,13.70
2019-05-05T10:56:59.481Z,13.74
2019-05-05T10:59:29.123Z,13.72
2019-05-05T11:01:58.771Z,13.68
2019-05-05T11:04:28.396Z,13.79
2019-05-05T11:06:58.166Z,13.74
2019-05-05T11:09:27.892Z,13.63
2019-05-05T11:11:57.544Z,13.91
2019-05-05T11:14:27.167Z,13.86
2019-05-05T11:16:56.826Z,14.01
2019-05-05T11:19:26.514Z,14.28
2019-05-05T11:21:56.166Z,14.51
2019-05-05T11:24:25.899Z,14.59
2019-05-05T11:26:55.551Z,14.78
2019-05-05T11:29:25.181Z,14.56
2019-05-05T11:31:55.310Z,14.63
2019-05-05T11:34:26.704Z,14.59
2019-05-05T11:36:58.003Z,14.70
2019-05-05T11:39:27.629Z,14.74
2019-05-05T11:41:57.274Z,14.87
2019-05-05T11:44:26.896Z,15.19
2019-05-05T11:46:56.623Z,14.91
2019-05-05T11:49:26.246Z,14.79
2019-05-05T11:51:56.000Z,14.90
2019-05-05T11:54:25.636Z,15.11
2019-05-05T11:56:55.384Z,15.39
2019-05-05T11:59:25.009Z,15.28
2019-05-05T12:01:55.161Z,15.27
2019-05-05T12:04:24.867Z,15.01
2019-05-05T12:06:54.536Z,14.94
2019-05-05T12:09:25.930Z,15.65
2019-05-05T12:11:55.576Z,15.76
2019-05-05T12:14:27.427Z,15.93
2019-05-05T12:16:57.077Z,16.14
2019-05-05T12:19:26.730Z,16.79
2019-05-05T12:21:56.362Z,17.03
2019-05-05T12:24:27.645Z,16.56
2019-05-05T12:27:04.816Z,16.72
2019-05-05T12:29:35.542Z,16.07
2019-05-05T12:32:05.160Z,15.86
2019-05-05T12:34:34.809Z,15.90
2019-05-05T12:37:05.275Z,15.69
2019-05-05T12:39:35.071Z,15.49
2019-05-05T12:42:05.063Z,15.18
2019-05-05T12:44:36.439Z,14.57
2019-05-05T12:47:24.091Z,14.43
2019-05-05T12:49:54.513Z,14.54
2019-05-05T12:52:24.253Z,14.96
2019-05-05T12:54:54.603Z,15.19
2019-05-05T12:57:24.302Z,15.21
2019-05-05T12:59:53.948Z,14.88
2019-05-05T13:02:23.920Z,14.89
2019-05-05T13:04:53.659Z,15.12
2019-05-05T13:07:24.708Z,15.38
2019-05-05T13:09:56.506Z,15.86
2019-05-05T13:12:26.125Z,15.48
2019-05-05T13:14:55.862Z,15.19
2019-05-05T13:17:25.481Z,14.74
2019-05-05T13:19:56.765Z,14.56
2019-05-05T13:22:39.867Z,14.80
2019-05-05T13:25:11.243Z,15.27
2019-05-05T13:27:42.506Z,15.00
2019-05-05T13:30:12.416Z,14.77
2019-05-05T13:32:43.977Z,14.51
2019-05-05T13:35:14.366Z,14.36
2019-05-05T13:37:44.426Z,14.11
2019-05-05T13:40:14.520Z,14.47
2019-05-05T13:42:44.217Z,14.68
2019-05-05T13:45:27.813Z,14.85
2019-05-05T13:47:57.460Z,14.55
2019-05-05T13:50:34.507Z,14.25
2019-05-05T13:53:04.196Z,13.99
2019-05-05T13:55:34.666Z,13.71
2019-05-05T13:58:04.525Z,13.62
2019-05-05T14:00:34.155Z,13.49
2019-05-05T14:03:04.101Z,13.40
2019-05-05T14:05:34.522Z,13.34
2019-05-05T14:08:04.355Z,13.35
2019-05-05T14:10:33.960Z,13.39
2019-05-05T14:13:03.843Z,13.92
2019-05-05T14:15:34.169Z,14.15
2019-05-05T14:18:03.991Z,14.10
2019-05-05T14:20:34.543Z,14.24
2019-05-05T14:23:04.452Z,14.56
2019-05-05T14:25:34.081Z,14.49
2019-05-05T14:28:04.003Z,14.26
2019-05-05T14:30:35.346Z,14.31
2019-05-05T14:33:05.745Z,14.36
2019-05-05T14:35:39.943Z,14.18
2019-05-05T14:38:11.249Z,14.04
2019-05-05T14:40:40.886Z,14.13
2019-05-05T14:43:10.553Z,14.07
2019-05-05T14:45:40.195Z,14.09
2019-05-05T14:48:09.929Z,14.34
2019-05-05T14:50:39.563Z,14.24
2019-05-05T14:53:09.214Z,14.16
2019-05-05T14:55:38.850Z,14.04
2019-05-05T14:58:08.512Z,13.79
2019-05-05T15:00:39.557Z,13.63
2019-05-05T15:03:09.294Z,13.62
2019-05-05T15:05:49.627Z,13.63
2019-05-05T15:08:24.207Z,13.61
2019-05-05T15:10:58.333Z,13.53
2019-05-05T15:13:28.073Z,13.34
2019-05-05T15:15:57.736Z,13.36
2019-05-05T15:18:27.378Z,13.30
2019-05-05T15:20:57.031Z,13.25
2019-05-05T15:23:26.651Z,13.15
2019-05-05T15:25:56.310Z,13.07
2019-05-05T15:28:25.937Z,13.09
2019-05-05T15:30:55.608Z,12.98
2019-05-05T15:33:25.356Z,12.93
2019-05-05T15:35:55.168Z,13.02
2019-05-05T15:38:24.800Z,13.13
2019-05-05T15:40:54.812Z,13.36
2019-05-05T15:43:24.560Z,13.80
2019-05-05T15:45:54.396Z,13.83
2019-05-05T15:48:24.023Z,13.68
2019-05-05T15:50:54.636Z,13.45
2019-05-05T15:53:24.378Z,13.62
2019-05-05T15:55:55.504Z,14.41
2019-05-05T15:58:25.569Z,15.43
2019-05-05T16:00:55.434Z,15.92
2019-05-05T16:03:25.563Z,16.03
2019-05-05T16:05:55.220Z,15.77
2019-05-05T16:08:24.854Z,15.26
2019-05-05T16:10:54.767Z,15.61
2019-05-05T16:13:24.529Z,15.00
2019-05-05T16:15:58.530Z,14.65
2019-05-05T16:18:29.825Z,14.42
2019-05-05T16:21:10.036Z,14.09
2019-05-05T16:23:44.006Z,13.91
2019-05-05T16:26:13.989Z,13.62
2019-05-05T16:28:44.564Z,13.46
2019-05-05T16:31:14.573Z,13.33
2019-05-05T16:33:44.269Z,13.18
2019-05-05T16:36:16.181Z,13.02
2019-05-05T16:38:45.806Z,12.88
2019-05-05T16:41:15.561Z,12.82
2019-05-05T16:43:45.196Z,12.73
2019-05-05T16:46:17.089Z,13.04
2019-05-05T16:48:46.186Z,13.29
2019-05-05T16:51:17.790Z,13.40
2019-05-05T16:53:47.424Z,13.66
2019-05-05T16:56:17.363Z,13.98
2019-05-05T16:58:46.999Z,14.55
2019-05-05T17:01:17.251Z,14.39
2019-05-05T17:03:46.877Z,14.62
2019-05-05T17:06:16.541Z,14.49
2019-05-05T17:08:46.162Z,14.60
2019-05-05T17:11:15.818Z,14.50
2019-05-05T17:14:04.922Z,14.87
2019-05-05T17:16:51.231Z,14.87
2019-05-05T17:19:25.100Z,15.26
2019-05-05T17:21:56.389Z,16.03
2019-05-05T17:24:26.045Z,16.47
2019-05-05T17:26:55.686Z,16.72
2019-05-05T17:29:25.563Z,16.71
2019-05-05T17:31:55.187Z,16.53
2019-05-05T17:34:24.892Z,15.83
2019-05-05T17:36:54.475Z,15.00
2019-05-05T17:39:25.954Z,14.69
2019-05-05T17:41:57.236Z,14.35
2019-05-05T17:44:28.533Z,14.12
2019-05-05T17:46:59.804Z,13.87
2019-05-05T17:49:37.089Z,13.71
2019-05-05T17:52:08.359Z,13.54
2019-05-05T17:54:39.663Z,13.47
2019-05-05T17:57:09.294Z,13.32
2019-05-05T17:59:38.957Z,13.17
2019-05-05T18:02:08.610Z,12.82
2019-05-05T18:04:38.928Z,12.62
2019-05-05T18:07:14.299Z,12.46
2019-05-05T18:09:57.751Z,12.41
2019-05-05T18:12:34.784Z,12.24
2019-05-05T18:15:09.763Z,12.10
2019-05-05T18:17:39.418Z,11.98
2019-05-05T18:20:09.280Z,11.99
2019-05-05T18:22:38.945Z,11.78
2019-05-05T18:25:08.574Z,11.69
2019-05-05T18:27:38.231Z,11.53
2019-05-05T18:30:08.109Z,11.47
2019-05-05T18:32:37.775Z,11.40
2019-05-05T18:35:07.409Z,11.31
2019-05-05T18:37:37.058Z,11.17
2019-05-05T18:40:07.623Z,11.00
2019-05-05T18:42:38.279Z,10.79
2019-05-05T18:45:12.736Z,10.61
2019-05-05T18:47:43.394Z,10.45
2019-05-05T18:50:13.602Z,10.25
2019-05-05T18:52:46.990Z,9.98
2019-05-05T18:55:14.708Z,9.80
2019-05-05T18:57:44.361Z,9.67
2019-05-05T19:00:16.061Z,9.53
2019-05-05T19:02:50.016Z,9.31
2019-05-05T19:05:29.783Z,9.14
2019-05-05T19:08:01.068Z,9.05
2019-05-05T19:10:30.802Z,8.97
2019-05-05T19:13:00.458Z,8.91
2019-05-05T19:15:30.097Z,8.79
2019-05-05T19:17:59.724Z,8.72
2019-05-05T19:20:47.252Z,8.62
2019-05-05T19:23:16.889Z,8.52
2019-05-05T19:25:46.548Z,8.37
2019-05-05T19:28:16.193Z,8.27
2019-05-05T19:30:45.829Z,8.23
2019-05-05T19:33:15.597Z,8.11
2019-05-05T19:35:47.261Z,8.10
2019-05-05T19:38:16.624Z,8.00
2019-05-05T19:40:46.308Z,7.93
2019-05-05T19:43:15.968Z,7.80
2019-05-05T19:45:45.616Z,7.71
2019-05-05T19:48:15.252Z,7.66
2019-05-05T19:50:49.493Z,7.62
2019-05-05T19:53:24.512Z,7.55
2019-05-05T19:55:55.345Z,7.54
2019-05-05T19:58:24.977Z,7.44
2019-05-05T20:00:56.514Z,7.35
2019-05-05T20:03:27.673Z,7.26
2019-05-05T20:05:57.399Z,7.30
2019-05-05T20:08:39.915Z,7.18
2019-05-05T20:10:59.377Z,7.22
2019-05-05T20:13:29.011Z,7.24
2019-05-05T20:16:14.002Z,7.22
2019-05-05T20:18:43.806Z,7.19
2019-05-05T20:21:14.513Z,7.17
2019-05-05T20:23:44.202Z,7.09
2019-05-05T20:26:14.494Z,7.08
2019-05-05T20:28:44.160Z,7.02
2019-05-05T20:31:14.274Z,6.96
2019-05-05T20:33:54.678Z,6.89
2019-05-05T20:36:32.090Z,6.82
2019-05-05T20:39:01.726Z,6.71
2019-05-05T20:41:31.379Z,6.66
2019-05-05T20:44:01.014Z,6.66
2019-05-05T20:46:30.652Z,6.59
2019-05-05T20:49:00.276Z,6.48
2019-05-05T20:51:29.925Z,6.40
2019-05-05T20:53:59.584Z,6.29
2019-05-05T20:56:29.214Z,6.25
2019-05-05T20:58:58.865Z,6.19
2019-05-05T21:01:28.491Z,6.09
2019-05-05T21:03:58.184Z,6.10
2019-05-05T21:06:27.818Z,6.02
2019-05-05T21:08:57.474Z,5.95
2019-05-05T21:11:27.109Z,5.86
2019-05-05T21:13:56.754Z,5.79
2019-05-05T21:16:26.378Z,5.76
2019-05-05T21:18:56.025Z,5.65
2019-05-05T21:21:27.286Z,5.56
2019-05-05T21:23:58.590Z,5.47
2019-05-05T21:26:46.077Z,5.39
2019-05-05T21:29:16.372Z,5.27
2019-05-05T21:31:45.997Z,5.24
2019-05-05T21:34:15.649Z,5.23
2019-05-05T21:36:45.290Z,5.17
2019-05-05T21:39:15.105Z,5.16
2019-05-05T21:41:44.703Z,5.10
2019-05-05T21:44:14.830Z,5.09
2019-05-05T21:46:44.438Z,5.05
2019-05-05T21:49:14.083Z,5.02
2019-05-05T21:51:48.297Z,5.04
2019-05-05T21:54:35.373Z,5.05
2019-05-05T21:57:14.085Z,4.93
2019-05-05T21:59:55.276Z,4.91
2019-05-05T22:02:15.386Z,4.93
2019-05-05T22:04:45.059Z,4.98
2019-05-05T22:07:14.680Z,4.92
2019-05-05T22:09:44.338Z,4.89
2019-05-05T22:12:13.968Z,4.87
2019-05-05T22:14:44.079Z,4.83
2019-05-05T22:17:14.680Z,4.78
2019-05-05T22:19:45.971Z,4.72
2019-05-05T22:22:16.902Z,4.65
2019-05-05T22:24:46.557Z,4.61
2019-05-05T22:27:16.275Z,4.63
2019-05-05T22:29:45.928Z,4.72
2019-05-05T22:32:15.651Z,4.65
2019-05-05T22:34:45.283Z,4.68
2019-05-05T22:37:14.913Z,4.69
2019-05-05T22:39:44.644Z,4.61
2019-05-05T22:42:15.800Z,4.59
2019-05-05T22:44:45.607Z,4.53
2019-05-05T22:47:15.365Z,4.55
2019-05-05T22:49:45.157Z,4.50
2019-05-05T22:52:15.119Z,4.45
2019-05-05T22:54:44.732Z,4.43
2019-05-05T22:57:14.377Z,4.33
2019-05-05T22:59:44.099Z,4.26
2019-05-05T23:02:15.485Z,4.24
2019-05-05T23:04:49.449Z,4.27
2019-05-05T23:07:26.489Z,4.22
2019-05-05T23:09:56.208Z,4.21
2019-05-05T23:12:26.006Z,4.19
2019-05-05T23:14:55.643Z,4.15
2019-05-05T23:17:29.544Z,4.11
2019-05-05T23:20:04.791Z,4.09
2019-05-05T23:22:48.522Z,4.06
2019-05-05T23:25:19.753Z,4.08
2019-05-05T23:27:50.230Z,3.99
2019-05-05T23:30:23.917Z,3.91
2019-05-05T23:32:54.868Z,3.88
2019-05-05T23:35:24.612Z,3.76
2019-05-05T23:37:55.258Z,3.77
2019-05-05T23:40:27.179Z,3.74
2019-05-05T23:42:56.998Z,3.67
2019-05-05T23:45:26.647Z,3.68
2019-05-05T23:47:56.309Z,3.68
2019-05-05T23:50:25.941Z,3.65
2019-05-05T23:52:55.607Z,3.65
2019-05-05T23:55:25.549Z,3.64
2019-05-05T23:57:55.201Z,3.63
